sensor_id;sensor_type;location;lat;lon;timestamp;P1;durP1;ratioP1;P2;durP2;ratioP2
4724;SDS011;2376;53.544;10.226;2022-11-20T00:01:08;3.30;;;3.10;;
4724;SDS011;2376;53.544;10.226;2022-11-20T00:03:36;3.80;;;3.30;;
4724;SDS011;2376;53.544;10.226;2022-11-20T00:06:03;3.40;;;3.10;;
4724;SDS011;2376;53.544;10.226;2022-11-20T00:08:31;3.10;;;2.90;;
4724;SDS011;2376;53.544;10.226;2022-11-20T00:11:01;6.00;;;3.57;;
4724;SDS011;2376;53.544;10.226;2022-11-20T00:13:29;3.43;;;3.23;;
4724;SDS011;2376;53.544;10.226;2022-11-20T00:15:59;2.93;;;2.63;;
4724;SDS011;2376;53.544;10.226;2022-11-20T00:18:28;3.07;;;2.87;;
4724;SDS011;2376;53.544;10.226;2022-11-20T00:21:00;3.53;;;3.30;;
4724;SDS011;2376;53.544;10.226;2022-11-20T00:23:27;2.50;;;2.40;;
4724;SDS011;2376;53.544;10.226;2022-11-20T00:25:54;2.60;;;2.40;;
4724;SDS011;2376;53.544;10.226;2022-11-20T00:28:20;3.43;;;3.00;;
4724;SDS011;2376;53.544;10.226;2022-11-20T00:30:47;3.30;;;3.10;;
4724;SDS011;2376;53.544;10.226;2022-11-20T00:33:14;3.30;;;3.10;;
4724;SDS011;2376;53.544;10.226;2022-11-20T00:35:42;4.60;;;3.00;;
4724;SDS011;2376;53.544;10.226;2022-11-20T00:38:09;3.17;;;2.97;;
4724;SDS011;2376;53.544;10.226;2022-11-20T00:40:35;3.87;;;2.97;;
4724;SDS011;2376;53.544;10.226;2022-11-20T00:43:02;4.93;;;2.80;;
4724;SDS011;2376;53.544;10.226;2022-11-20T00:45:29;3.43;;;3.13;;
4724;SDS011;2376;53.544;10.226;2022-11-20T00:47:56;4.13;;;3.17;;
4724;SDS011;2376;53.544;10.226;2022-11-20T00:50:22;3.30;;;3.10;;
4724;SDS011;2376;53.544;10.226;2022-11-20T00:52:50;3.10;;;2.80;;
4724;SDS011;2376;53.544;10.226;2022-11-20T00:55:17;6.20;;;3.20;;
4724;SDS011;2376;53.544;10.226;2022-11-20T00:57:44;2.93;;;2.73;;
4724;SDS011;2376;53.544;10.226;2022-11-20T01:00:10;3.10;;;2.90;;
4724;SDS011;2376;53.544;10.226;2022-11-20T01:02:37;4.53;;;2.70;;
4724;SDS011;2376;53.544;10.226;2022-11-20T01:05:04;3.07;;;2.87;;
4724;SDS011;2376;53.544;10.226;2022-11-20T01:07:31;4.90;;;3.17;;
4724;SDS011;2376;53.544;10.226;2022-11-20T01:10:00;3.50;;;3.20;;
4724;SDS011;2376;53.544;10.226;2022-11-20T01:12:26;4.10;;;2.73;;
4724;SDS011;2376;53.544;10.226;2022-11-20T01:14:53;4.70;;;2.97;;
4724;SDS011;2376;53.544;10.226;2022-11-20T01:17:20;3.43;;;3.13;;
4724;SDS011;2376;53.544;10.226;2022-11-20T01:19:48;2.57;;;2.37;;
4724;SDS011;2376;53.544;10.226;2022-11-20T01:22:15;3.00;;;2.80;;
4724;SDS011;2376;53.544;10.226;2022-11-20T01:24:42;3.33;;;3.10;;
4724;SDS011;2376;53.544;10.226;2022-11-20T01:27:10;2.83;;;2.70;;
4724;SDS011;2376;53.544;10.226;2022-11-20T01:29:36;3.30;;;3.00;;
4724;SDS011;2376;53.544;10.226;2022-11-20T01:32:03;5.80;;;3.20;;
4724;SDS011;2376;53.544;10.226;2022-11-20T01:34:30;3.83;;;3.10;;
4724;SDS011;2376;53.544;10.226;2022-11-20T01:36:57;3.03;;;2.83;;
4724;SDS011;2376;53.544;10.226;2022-11-20T01:39:24;2.80;;;2.60;;
4724;SDS011;2376;53.544;10.226;2022-11-20T01:41:52;6.00;;;3.50;;
4724;SDS011;2376;53.544;10.226;2022-11-20T01:44:47;4.13;;;3.00;;
4724;SDS011;2376;53.544;10.226;2022-11-20T01:47:17;3.60;;;3.30;;
4724;SDS011;2376;53.544;10.226;2022-11-20T01:49:50;3.77;;;3.50;;
4724;SDS011;2376;53.544;10.226;2022-11-20T01:52:20;2.90;;;2.70;;
4724;SDS011;2376;53.544;10.226;2022-11-20T01:54:48;4.43;;;3.20;;
4724;SDS011;2376;53.544;10.226;2022-11-20T01:57:22;2.80;;;2.60;;
4724;SDS011;2376;53.544;10.226;2022-11-20T01:59:53;2.90;;;2.70;;
4724;SDS011;2376;53.544;10.226;2022-11-20T02:02:25;4.20;;;3.23;;
4724;SDS011;2376;53.544;10.226;2022-11-20T02:04:52;5.83;;;3.03;;
4724;SDS011;2376;53.544;10.226;2022-11-20T02:07:22;5.53;;;3.00;;
4724;SDS011;2376;53.544;10.226;2022-11-20T02:09:50;3.23;;;3.03;;
4724;SDS011;2376;53.544;10.226;2022-11-20T02:12:17;3.60;;;3.40;;
4724;SDS011;2376;53.544;10.226;2022-11-20T02:14:59;3.90;;;3.60;;
4724;SDS011;2376;53.544;10.226;2022-11-20T02:17:26;3.57;;;3.30;;
4724;SDS011;2376;53.544;10.226;2022-11-20T02:19:53;3.57;;;3.27;;
4724;SDS011;2376;53.544;10.226;2022-11-20T02:22:21;3.93;;;3.63;;
4724;SDS011;2376;53.544;10.226;2022-11-20T02:24:56;3.50;;;3.30;;
4724;SDS011;2376;53.544;10.226;2022-11-20T02:27:24;4.00;;;3.70;;
4724;SDS011;2376;53.544;10.226;2022-11-20T02:29:53;3.53;;;2.83;;
4724;SDS011;2376;53.544;10.226;2022-11-20T02:32:24;3.83;;;3.53;;
4724;SDS011;2376;53.544;10.226;2022-11-20T02:34:53;4.07;;;3.47;;
4724;SDS011;2376;53.544;10.226;2022-11-20T02:37:20;4.23;;;3.80;;
4724;SDS011;2376;53.544;10.226;2022-11-20T02:39:48;4.10;;;3.80;;
4724;SDS011;2376;53.544;10.226;2022-11-20T02:42:18;3.80;;;3.50;;
4724;SDS011;2376;53.544;10.226;2022-11-20T02:44:45;4.83;;;3.40;;
4724;SDS011;2376;53.544;10.226;2022-11-20T02:47:11;4.53;;;3.47;;
4724;SDS011;2376;53.544;10.226;2022-11-20T02:49:38;3.93;;;3.67;;
4724;SDS011;2376;53.544;10.226;2022-11-20T02:52:05;3.77;;;3.43;;
4724;SDS011;2376;53.544;10.226;2022-11-20T02:54:31;3.60;;;3.40;;
4724;SDS011;2376;53.544;10.226;2022-11-20T02:56:58;4.27;;;3.97;;
4724;SDS011;2376;53.544;10.226;2022-11-20T02:59:26;3.90;;;3.60;;
4724;SDS011;2376;53.544;10.226;2022-11-20T03:01:53;4.13;;;3.83;;
4724;SDS011;2376;53.544;10.226;2022-11-20T03:04:19;4.63;;;4.37;;
4724;SDS011;2376;53.544;10.226;2022-11-20T03:06:46;3.93;;;3.70;;
4724;SDS011;2376;53.544;10.226;2022-11-20T03:09:13;3.87;;;3.57;;
4724;SDS011;2376;53.544;10.226;2022-11-20T03:11:39;4.50;;;4.10;;
4724;SDS011;2376;53.544;10.226;2022-11-20T03:14:06;4.43;;;4.00;;
4724;SDS011;2376;53.544;10.226;2022-11-20T03:16:35;4.27;;;3.87;;
4724;SDS011;2376;53.544;10.226;2022-11-20T03:19:01;4.77;;;4.30;;
4724;SDS011;2376;53.544;10.226;2022-11-20T03:21:28;3.60;;;3.40;;
4724;SDS011;2376;53.544;10.226;2022-11-20T03:23:55;4.43;;;4.03;;
4724;SDS011;2376;53.544;10.226;2022-11-20T03:26:22;6.90;;;3.60;;
4724;SDS011;2376;53.544;10.226;2022-11-20T03:28:52;3.73;;;3.43;;
4724;SDS011;2376;53.544;10.226;2022-11-20T03:31:21;3.63;;;3.40;;
4724;SDS011;2376;53.544;10.226;2022-11-20T03:33:51;3.53;;;3.33;;
4724;SDS011;2376;53.544;10.226;2022-11-20T03:36:18;3.80;;;3.53;;
4724;SDS011;2376;53.544;10.226;2022-11-20T03:38:46;3.90;;;3.70;;
4724;SDS011;2376;53.544;10.226;2022-11-20T03:41:14;5.10;;;4.47;;
4724;SDS011;2376;53.544;10.226;2022-11-20T03:43:42;3.97;;;3.67;;
4724;SDS011;2376;53.544;10.226;2022-11-20T03:46:12;4.03;;;3.73;;
4724;SDS011;2376;53.544;10.226;2022-11-20T03:48:39;3.80;;;3.50;;
4724;SDS011;2376;53.544;10.226;2022-11-20T03:51:07;3.30;;;3.10;;
4724;SDS011;2376;53.544;10.226;2022-11-20T03:53:36;3.73;;;3.43;;
4724;SDS011;2376;53.544;10.226;2022-11-20T03:56:02;3.70;;;3.50;;
4724;SDS011;2376;53.544;10.226;2022-11-20T03:58:30;4.20;;;3.90;;
4724;SDS011;2376;53.544;10.226;2022-11-20T04:00:57;3.50;;;3.30;;
4724;SDS011;2376;53.544;10.226;2022-11-20T04:03:23;3.90;;;3.60;;
4724;SDS011;2376;53.544;10.226;2022-11-20T04:05:51;3.63;;;3.27;;
4724;SDS011;2376;53.544;10.226;2022-11-20T04:08:19;4.07;;;3.77;;
4724;SDS011;2376;53.544;10.226;2022-11-20T04:10:46;4.00;;;3.70;;
4724;SDS011;2376;53.544;10.226;2022-11-20T04:13:12;4.10;;;3.87;;
4724;SDS011;2376;53.544;10.226;2022-11-20T04:15:39;3.97;;;3.67;;
4724;SDS011;2376;53.544;10.226;2022-11-20T04:18:05;3.97;;;3.67;;
4724;SDS011;2376;53.544;10.226;2022-11-20T04:20:32;3.00;;;2.80;;
4724;SDS011;2376;53.544;10.226;2022-11-20T04:22:59;4.10;;;3.80;;
4724;SDS011;2376;53.544;10.226;2022-11-20T04:25:27;3.50;;;3.20;;
4724;SDS011;2376;53.544;10.226;2022-11-20T04:27:54;3.87;;;3.57;;
4724;SDS011;2376;53.544;10.226;2022-11-20T04:30:21;4.47;;;3.57;;
4724;SDS011;2376;53.544;10.226;2022-11-20T04:32:48;3.27;;;3.17;;
4724;SDS011;2376;53.544;10.226;2022-11-20T04:35:14;4.33;;;4.03;;
4724;SDS011;2376;53.544;10.226;2022-11-20T04:37:41;4.30;;;3.10;;
4724;SDS011;2376;53.544;10.226;2022-11-20T04:40:08;6.80;;;3.40;;
4724;SDS011;2376;53.544;10.226;2022-11-20T04:42:36;3.60;;;3.40;;
4724;SDS011;2376;53.544;10.226;2022-11-20T04:45:03;4.20;;;3.90;;
4724;SDS011;2376;53.544;10.226;2022-11-20T04:47:31;3.80;;;3.50;;
4724;SDS011;2376;53.544;10.226;2022-11-20T04:49:57;3.47;;;3.20;;
4724;SDS011;2376;53.544;10.226;2022-11-20T04:52:24;3.40;;;3.20;;
4724;SDS011;2376;53.544;10.226;2022-11-20T04:54:51;3.73;;;3.43;;
4724;SDS011;2376;53.544;10.226;2022-11-20T04:57:19;3.57;;;3.30;;
4724;SDS011;2376;53.544;10.226;2022-11-20T04:59:47;3.27;;;3.00;;
4724;SDS011;2376;53.544;10.226;2022-11-20T05:02:13;3.80;;;3.10;;
4724;SDS011;2376;53.544;10.226;2022-11-20T05:04:40;3.60;;;3.37;;
4724;SDS011;2376;53.544;10.226;2022-11-20T05:07:07;4.07;;;3.67;;
4724;SDS011;2376;53.544;10.226;2022-11-20T05:09:33;3.80;;;3.50;;
4724;SDS011;2376;53.544;10.226;2022-11-20T05:12:00;3.33;;;3.10;;
4724;SDS011;2376;53.544;10.226;2022-11-20T05:14:27;3.03;;;2.80;;
4724;SDS011;2376;53.544;10.226;2022-11-20T05:16:55;3.50;;;3.30;;
4724;SDS011;2376;53.544;10.226;2022-11-20T05:19:21;2.80;;;2.60;;
4724;SDS011;2376;53.544;10.226;2022-11-20T05:21:48;3.40;;;3.20;;
4724;SDS011;2376;53.544;10.226;2022-11-20T05:24:15;4.03;;;3.73;;
4724;SDS011;2376;53.544;10.226;2022-11-20T05:26:41;8.20;;;3.33;;
4724;SDS011;2376;53.544;10.226;2022-11-20T05:29:09;3.80;;;3.60;;
4724;SDS011;2376;53.544;10.226;2022-11-20T05:31:36;3.93;;;3.63;;
4724;SDS011;2376;53.544;10.226;2022-11-20T05:34:06;5.13;;;3.27;;
4724;SDS011;2376;53.544;10.226;2022-11-20T05:36:33;3.87;;;3.57;;
4724;SDS011;2376;53.544;10.226;2022-11-20T05:38:59;3.80;;;3.53;;
4724;SDS011;2376;53.544;10.226;2022-11-20T05:41:26;3.47;;;3.20;;
4724;SDS011;2376;53.544;10.226;2022-11-20T05:43:53;3.60;;;3.40;;
4724;SDS011;2376;53.544;10.226;2022-11-20T05:46:20;4.77;;;4.43;;
4724;SDS011;2376;53.544;10.226;2022-11-20T05:48:47;3.83;;;3.43;;
4724;SDS011;2376;53.544;10.226;2022-11-20T05:51:16;2.90;;;2.80;;
4724;SDS011;2376;53.544;10.226;2022-11-20T05:53:44;5.10;;;3.67;;
4724;SDS011;2376;53.544;10.226;2022-11-20T05:56:12;4.00;;;3.70;;
4724;SDS011;2376;53.544;10.226;2022-11-20T05:58:39;3.83;;;3.47;;
4724;SDS011;2376;53.544;10.226;2022-11-20T06:01:07;3.43;;;3.23;;
4724;SDS011;2376;53.544;10.226;2022-11-20T06:03:35;3.37;;;3.17;;
4724;SDS011;2376;53.544;10.226;2022-11-20T06:06:02;3.73;;;3.43;;
4724;SDS011;2376;53.544;10.226;2022-11-20T06:08:31;3.70;;;3.50;;
4724;SDS011;2376;53.544;10.226;2022-11-20T06:10:58;3.80;;;3.50;;
4724;SDS011;2376;53.544;10.226;2022-11-20T06:13:28;4.03;;;3.73;;
4724;SDS011;2376;53.544;10.226;2022-11-20T06:15:55;4.17;;;3.73;;
4724;SDS011;2376;53.544;10.226;2022-11-20T06:18:21;3.60;;;3.30;;
4724;SDS011;2376;53.544;10.226;2022-11-20T06:20:48;3.10;;;2.90;;
4724;SDS011;2376;53.544;10.226;2022-11-20T06:23:15;4.50;;;4.10;;
4724;SDS011;2376;53.544;10.226;2022-11-20T06:25:43;4.10;;;3.90;;
4724;SDS011;2376;53.544;10.226;2022-11-20T06:28:09;6.67;;;4.60;;
4724;SDS011;2376;53.544;10.226;2022-11-20T06:30:36;4.63;;;4.03;;
4724;SDS011;2376;53.544;10.226;2022-11-20T06:33:03;3.87;;;3.67;;
4724;SDS011;2376;53.544;10.226;2022-11-20T06:35:29;4.70;;;3.97;;
4724;SDS011;2376;53.544;10.226;2022-11-20T06:37:56;5.93;;;3.87;;
4724;SDS011;2376;53.544;10.226;2022-11-20T06:40:23;5.07;;;4.57;;
4724;SDS011;2376;53.544;10.226;2022-11-20T06:42:52;4.27;;;4.03;;
4724;SDS011;2376;53.544;10.226;2022-11-20T06:45:20;4.53;;;4.10;;
4724;SDS011;2376;53.544;10.226;2022-11-20T06:47:47;4.70;;;4.40;;
4724;SDS011;2376;53.544;10.226;2022-11-20T06:50:13;5.97;;;5.37;;
4724;SDS011;2376;53.544;10.226;2022-11-20T06:52:40;5.93;;;4.50;;
4724;SDS011;2376;53.544;10.226;2022-11-20T06:55:07;4.90;;;4.40;;
4724;SDS011;2376;53.544;10.226;2022-11-20T06:57:34;5.63;;;5.13;;
4724;SDS011;2376;53.544;10.226;2022-11-20T07:00:02;7.10;;;5.70;;
4724;SDS011;2376;53.544;10.226;2022-11-20T07:02:29;5.37;;;4.97;;
4724;SDS011;2376;53.544;10.226;2022-11-20T07:04:56;5.17;;;4.77;;
4724;SDS011;2376;53.544;10.226;2022-11-20T07:07:22;7.90;;;7.20;;
4724;SDS011;2376;53.544;10.226;2022-11-20T07:09:49;15.27;;;14.23;;
4724;SDS011;2376;53.544;10.226;2022-11-20T07:12:16;15.03;;;14.13;;
4724;SDS011;2376;53.544;10.226;2022-11-20T07:14:42;7.40;;;6.90;;
4724;SDS011;2376;53.544;10.226;2022-11-20T07:17:11;8.67;;;7.87;;
4724;SDS011;2376;53.544;10.226;2022-11-20T07:19:37;8.70;;;8.00;;
4724;SDS011;2376;53.544;10.226;2022-11-20T07:22:04;8.03;;;7.43;;
4724;SDS011;2376;53.544;10.226;2022-11-20T07:24:31;8.40;;;7.73;;
4724;SDS011;2376;53.544;10.226;2022-11-20T07:26:57;9.20;;;8.40;;
4724;SDS011;2376;53.544;10.226;2022-11-20T07:29:24;8.53;;;7.80;;
4724;SDS011;2376;53.544;10.226;2022-11-20T07:31:50;11.80;;;10.70;;
4724;SDS011;2376;53.544;10.226;2022-11-20T07:34:18;10.03;;;9.13;;
4724;SDS011;2376;53.544;10.226;2022-11-20T07:36:45;11.47;;;10.37;;
4724;SDS011;2376;53.544;10.226;2022-11-20T07:39:12;9.03;;;8.27;;
4724;SDS011;2376;53.544;10.226;2022-11-20T07:41:38;8.17;;;7.40;;
4724;SDS011;2376;53.544;10.226;2022-11-20T07:44:05;8.20;;;7.50;;
4724;SDS011;2376;53.544;10.226;2022-11-20T07:46:32;7.90;;;7.30;;
4724;SDS011;2376;53.544;10.226;2022-11-20T07:48:58;6.63;;;6.13;;
4724;SDS011;2376;53.544;10.226;2022-11-20T07:51:26;6.47;;;5.97;;
4724;SDS011;2376;53.544;10.226;2022-11-20T07:53:54;5.37;;;4.87;;
4724;SDS011;2376;53.544;10.226;2022-11-20T07:56:21;5.30;;;4.80;;
4724;SDS011;2376;53.544;10.226;2022-11-20T07:58:47;6.90;;;6.37;;
4724;SDS011;2376;53.544;10.226;2022-11-20T08:01:14;6.47;;;5.97;;
4724;SDS011;2376;53.544;10.226;2022-11-20T08:03:40;6.30;;;5.70;;
4724;SDS011;2376;53.544;10.226;2022-11-20T08:06:07;6.00;;;5.60;;
4724;SDS011;2376;53.544;10.226;2022-11-20T08:08:35;6.60;;;5.90;;
4724;SDS011;2376;53.544;10.226;2022-11-20T08:11:04;6.23;;;5.63;;
4724;SDS011;2376;53.544;10.226;2022-11-20T08:13:48;6.37;;;5.97;;
4724;SDS011;2376;53.544;10.226;2022-11-20T08:16:33;6.93;;;6.43;;
4724;SDS011;2376;53.544;10.226;2022-11-20T08:18:59;6.10;;;5.50;;
4724;SDS011;2376;53.544;10.226;2022-11-20T08:21:26;6.37;;;5.87;;
4724;SDS011;2376;53.544;10.226;2022-11-20T08:23:54;6.00;;;5.40;;
4724;SDS011;2376;53.544;10.226;2022-11-20T08:26:21;6.10;;;5.70;;
4724;SDS011;2376;53.544;10.226;2022-11-20T08:28:48;6.37;;;5.77;;
4724;SDS011;2376;53.544;10.226;2022-11-20T08:31:14;7.20;;;6.67;;
4724;SDS011;2376;53.544;10.226;2022-11-20T08:33:41;6.30;;;5.80;;
4724;SDS011;2376;53.544;10.226;2022-11-20T08:36:08;6.03;;;5.43;;
4724;SDS011;2376;53.544;10.226;2022-11-20T08:38:35;6.73;;;6.13;;
4724;SDS011;2376;53.544;10.226;2022-11-20T08:41:03;7.40;;;6.70;;
4724;SDS011;2376;53.544;10.226;2022-11-20T08:43:48;6.60;;;6.00;;
4724;SDS011;2376;53.544;10.226;2022-11-20T08:46:15;6.20;;;5.70;;
4724;SDS011;2376;53.544;10.226;2022-11-20T08:48:42;5.50;;;5.00;;
4724;SDS011;2376;53.544;10.226;2022-11-20T08:51:10;12.53;;;6.70;;
4724;SDS011;2376;53.544;10.226;2022-11-20T08:53:38;4.63;;;4.27;;
4724;SDS011;2376;53.544;10.226;2022-11-20T08:56:06;4.70;;;4.40;;
4724;SDS011;2376;53.544;10.226;2022-11-20T08:58:34;5.27;;;4.87;;
4724;SDS011;2376;53.544;10.226;2022-11-20T09:01:01;4.37;;;4.10;;
4724;SDS011;2376;53.544;10.226;2022-11-20T09:03:28;3.50;;;3.30;;
4724;SDS011;2376;53.544;10.226;2022-11-20T09:05:56;4.37;;;3.97;;
4724;SDS011;2376;53.544;10.226;2022-11-20T09:08:24;3.93;;;3.70;;
4724;SDS011;2376;53.544;10.226;2022-11-20T09:10:51;4.53;;;4.23;;
4724;SDS011;2376;53.544;10.226;2022-11-20T09:13:19;3.90;;;3.70;;
4724;SDS011;2376;53.544;10.226;2022-11-20T09:15:46;3.70;;;3.40;;
4724;SDS011;2376;53.544;10.226;2022-11-20T09:18:13;4.20;;;3.80;;
4724;SDS011;2376;53.544;10.226;2022-11-20T09:20:40;3.80;;;3.50;;
4724;SDS011;2376;53.544;10.226;2022-11-20T09:23:07;3.87;;;3.67;;
4724;SDS011;2376;53.544;10.226;2022-11-20T09:25:33;4.43;;;4.13;;
4724;SDS011;2376;53.544;10.226;2022-11-20T09:28:00;3.93;;;3.57;;
4724;SDS011;2376;53.544;10.226;2022-11-20T09:30:28;3.00;;;2.80;;
4724;SDS011;2376;53.544;10.226;2022-11-20T09:32:55;3.80;;;3.50;;
4724;SDS011;2376;53.544;10.226;2022-11-20T09:35:22;3.93;;;3.63;;
4724;SDS011;2376;53.544;10.226;2022-11-20T09:37:49;4.17;;;3.50;;
4724;SDS011;2376;53.544;10.226;2022-11-20T09:42:47;2.77;;;2.60;;
4724;SDS011;2376;53.544;10.226;2022-11-20T09:45:21;3.53;;;3.33;;
4724;SDS011;2376;53.544;10.226;2022-11-20T09:48:00;3.40;;;3.20;;
4724;SDS011;2376;53.544;10.226;2022-11-20T09:50:42;3.60;;;3.33;;
4724;SDS011;2376;53.544;10.226;2022-11-20T09:53:16;3.50;;;3.30;;
4724;SDS011;2376;53.544;10.226;2022-11-20T09:55:50;3.07;;;2.87;;
4724;SDS011;2376;53.544;10.226;2022-11-20T09:58:21;3.50;;;3.30;;
4724;SDS011;2376;53.544;10.226;2022-11-20T10:00:57;4.27;;;3.97;;
4724;SDS011;2376;53.544;10.226;2022-11-20T10:03:37;4.33;;;3.93;;
4724;SDS011;2376;53.544;10.226;2022-11-20T10:06:10;4.30;;;3.90;;
4724;SDS011;2376;53.544;10.226;2022-11-20T10:08:42;3.60;;;3.30;;
4724;SDS011;2376;53.544;10.226;2022-11-20T10:11:13;3.43;;;3.23;;
4724;SDS011;2376;53.544;10.226;2022-11-20T10:13:49;3.80;;;3.60;;
4724;SDS011;2376;53.544;10.226;2022-11-20T10:16:25;3.20;;;3.00;;
4724;SDS011;2376;53.544;10.226;2022-11-20T10:19:03;3.23;;;3.13;;
4724;SDS011;2376;53.544;10.226;2022-11-20T10:21:41;3.80;;;3.60;;
4724;SDS011;2376;53.544;10.226;2022-11-20T10:24:24;4.00;;;3.70;;
4724;SDS011;2376;53.544;10.226;2022-11-20T10:27:06;3.80;;;3.60;;
4724;SDS011;2376;53.544;10.226;2022-11-20T10:29:51;4.37;;;4.07;;
4724;SDS011;2376;53.544;10.226;2022-11-20T10:32:28;4.17;;;3.87;;
4724;SDS011;2376;53.544;10.226;2022-11-20T10:35:03;5.27;;;4.87;;
4724;SDS011;2376;53.544;10.226;2022-11-20T10:37:34;5.00;;;4.60;;
4724;SDS011;2376;53.544;10.226;2022-11-20T10:40:14;8.50;;;7.57;;
4724;SDS011;2376;53.544;10.226;2022-11-20T10:42:49;8.60;;;7.70;;
4724;SDS011;2376;53.544;10.226;2022-11-20T10:45:21;4.37;;;4.10;;
4724;SDS011;2376;53.544;10.226;2022-11-20T10:48:01;4.50;;;4.10;;
4724;SDS011;2376;53.544;10.226;2022-11-20T10:50:40;7.30;;;6.60;;
4724;SDS011;2376;53.544;10.226;2022-11-20T10:53:16;9.00;;;8.27;;
4724;SDS011;2376;53.544;10.226;2022-11-20T10:55:50;11.80;;;10.70;;
4724;SDS011;2376;53.544;10.226;2022-11-20T10:58:23;6.17;;;5.37;;
4724;SDS011;2376;53.544;10.226;2022-11-20T11:01:03;9.70;;;7.20;;
4724;SDS011;2376;53.544;10.226;2022-11-20T11:03:30;23.63;;;14.80;;
4724;SDS011;2376;53.544;10.226;2022-11-20T11:06:02;52.23;;;26.00;;
4724;SDS011;2376;53.544;10.226;2022-11-20T11:08:35;6.60;;;6.00;;
4724;SDS011;2376;53.544;10.226;2022-11-20T11:11:07;7.13;;;6.27;;
4724;SDS011;2376;53.544;10.226;2022-11-20T11:13:46;5.20;;;4.70;;
4724;SDS011;2376;53.544;10.226;2022-11-20T11:16:17;5.77;;;5.27;;
4724;SDS011;2376;53.544;10.226;2022-11-20T11:18:48;12.60;;;7.33;;
4724;SDS011;2376;53.544;10.226;2022-11-20T11:21:20;9.13;;;8.23;;
4724;SDS011;2376;53.544;10.226;2022-11-20T11:23:57;9.47;;;5.90;;
4724;SDS011;2376;53.544;10.226;2022-11-20T11:26:25;6.23;;;4.33;;
4724;SDS011;2376;53.544;10.226;2022-11-20T11:28:53;4.73;;;4.37;;
4724;SDS011;2376;53.544;10.226;2022-11-20T11:31:24;4.10;;;3.50;;
4724;SDS011;2376;53.544;10.226;2022-11-20T11:33:52;4.07;;;3.77;;
4724;SDS011;2376;53.544;10.226;2022-11-20T11:36:30;3.80;;;3.50;;
4724;SDS011;2376;53.544;10.226;2022-11-20T11:39:00;3.47;;;3.20;;
4724;SDS011;2376;53.544;10.226;2022-11-20T11:41:29;3.47;;;3.27;;
4724;SDS011;2376;53.544;10.226;2022-11-20T11:44:00;5.53;;;3.27;;
4724;SDS011;2376;53.544;10.226;2022-11-20T11:46:59;2.93;;;2.83;;
4724;SDS011;2376;53.544;10.226;2022-11-20T11:49:26;3.23;;;2.93;;
4724;SDS011;2376;53.544;10.226;2022-11-20T11:51:59;3.00;;;2.80;;
4724;SDS011;2376;53.544;10.226;2022-11-20T11:54:33;3.37;;;3.17;;
4724;SDS011;2376;53.544;10.226;2022-11-20T11:57:05;2.83;;;2.73;;
4724;SDS011;2376;53.544;10.226;2022-11-20T11:59:41;3.03;;;2.87;;
4724;SDS011;2376;53.544;10.226;2022-11-20T12:02:31;3.13;;;3.00;;
4724;SDS011;2376;53.544;10.226;2022-11-20T12:05:03;2.60;;;2.50;;
4724;SDS011;2376;53.544;10.226;2022-11-20T12:07:41;3.23;;;2.40;;
4724;SDS011;2376;53.544;10.226;2022-11-20T12:10:14;2.80;;;2.70;;
4724;SDS011;2376;53.544;10.226;2022-11-20T12:12:46;2.97;;;2.77;;
4724;SDS011;2376;53.544;10.226;2022-11-20T12:15:20;2.47;;;2.37;;
4724;SDS011;2376;53.544;10.226;2022-11-20T12:17:54;2.90;;;2.70;;
4724;SDS011;2376;53.544;10.226;2022-11-20T12:20:21;5.43;;;2.60;;
4724;SDS011;2376;53.544;10.226;2022-11-20T12:22:55;3.00;;;2.80;;
4724;SDS011;2376;53.544;10.226;2022-11-20T12:25:28;2.33;;;2.23;;
4724;SDS011;2376;53.544;10.226;2022-11-20T12:28:19;3.30;;;3.00;;
4724;SDS011;2376;53.544;10.226;2022-11-20T12:31:02;2.37;;;2.27;;
4724;SDS011;2376;53.544;10.226;2022-11-20T12:33:51;2.30;;;2.20;;
4724;SDS011;2376;53.544;10.226;2022-11-20T12:36:32;2.30;;;2.20;;
4724;SDS011;2376;53.544;10.226;2022-11-20T12:39:10;2.97;;;2.77;;
4724;SDS011;2376;53.544;10.226;2022-11-20T12:41:51;2.60;;;2.50;;
4724;SDS011;2376;53.544;10.226;2022-11-20T12:51:03;3.50;;;2.57;;
4724;SDS011;2376;53.544;10.226;2022-11-20T12:53:50;2.90;;;2.70;;
4724;SDS011;2376;53.544;10.226;2022-11-20T12:56:34;2.67;;;2.47;;
4724;SDS011;2376;53.544;10.226;2022-11-20T12:59:15;2.53;;;2.43;;
4724;SDS011;2376;53.544;10.226;2022-11-20T13:01:54;2.30;;;2.20;;
4724;SDS011;2376;53.544;10.226;2022-11-20T13:04:32;2.77;;;2.57;;
4724;SDS011;2376;53.544;10.226;2022-11-20T13:07:09;3.13;;;3.03;;
4724;SDS011;2376;53.544;10.226;2022-11-20T13:09:41;2.43;;;2.33;;
4724;SDS011;2376;53.544;10.226;2022-11-20T13:12:13;3.17;;;2.97;;
4724;SDS011;2376;53.544;10.226;2022-11-20T13:14:50;2.97;;;2.77;;
4724;SDS011;2376;53.544;10.226;2022-11-20T13:17:23;5.40;;;3.20;;
4724;SDS011;2376;53.544;10.226;2022-11-20T13:19:56;5.10;;;3.77;;
4724;SDS011;2376;53.544;10.226;2022-11-20T13:22:24;3.30;;;3.00;;
4724;SDS011;2376;53.544;10.226;2022-11-20T13:24:52;3.17;;;2.97;;
4724;SDS011;2376;53.544;10.226;2022-11-20T13:27:21;2.80;;;2.70;;
4724;SDS011;2376;53.544;10.226;2022-11-20T13:29:59;2.80;;;2.60;;
4724;SDS011;2376;53.544;10.226;2022-11-20T13:32:28;2.57;;;2.40;;
4724;SDS011;2376;53.544;10.226;2022-11-20T13:34:58;2.80;;;2.70;;
4724;SDS011;2376;53.544;10.226;2022-11-20T13:37:27;2.73;;;2.63;;
4724;SDS011;2376;53.544;10.226;2022-11-20T13:40:12;3.10;;;2.90;;
4724;SDS011;2376;53.544;10.226;2022-11-20T13:42:54;2.80;;;2.70;;
4724;SDS011;2376;53.544;10.226;2022-11-20T13:45:23;3.07;;;2.87;;
4724;SDS011;2376;53.544;10.226;2022-11-20T13:47:52;2.63;;;2.43;;
4724;SDS011;2376;53.544;10.226;2022-11-20T13:50:21;2.73;;;2.63;;
4724;SDS011;2376;53.544;10.226;2022-11-20T13:53:16;2.60;;;2.50;;
4724;SDS011;2376;53.544;10.226;2022-11-20T13:55:54;2.60;;;2.50;;
4724;SDS011;2376;53.544;10.226;2022-11-20T13:58:30;2.60;;;2.50;;
4724;SDS011;2376;53.544;10.226;2022-11-20T14:01:10;2.40;;;2.30;;
4724;SDS011;2376;53.544;10.226;2022-11-20T14:03:42;3.37;;;3.17;;
4724;SDS011;2376;53.544;10.226;2022-11-20T14:06:11;3.17;;;2.97;;
4724;SDS011;2376;53.544;10.226;2022-11-20T14:08:42;3.00;;;2.80;;
4724;SDS011;2376;53.544;10.226;2022-11-20T14:11:14;3.30;;;3.10;;
4724;SDS011;2376;53.544;10.226;2022-11-20T14:14:00;2.87;;;2.67;;
4724;SDS011;2376;53.544;10.226;2022-11-20T14:16:29;3.33;;;3.00;;
4724;SDS011;2376;53.544;10.226;2022-11-20T14:18:57;3.53;;;3.33;;
4724;SDS011;2376;53.544;10.226;2022-11-20T14:21:46;3.20;;;3.00;;
4724;SDS011;2376;53.544;10.226;2022-11-20T14:24:13;3.17;;;2.97;;
4724;SDS011;2376;53.544;10.226;2022-11-20T14:26:45;3.03;;;2.90;;
4724;SDS011;2376;53.544;10.226;2022-11-20T14:29:14;4.30;;;3.83;;
4724;SDS011;2376;53.544;10.226;2022-11-20T14:31:43;3.30;;;3.10;;
4724;SDS011;2376;53.544;10.226;2022-11-20T14:34:12;4.23;;;3.83;;
4724;SDS011;2376;53.544;10.226;2022-11-20T14:36:44;3.70;;;3.40;;
4724;SDS011;2376;53.544;10.226;2022-11-20T14:39:11;7.20;;;3.30;;
4724;SDS011;2376;53.544;10.226;2022-11-20T14:41:50;3.00;;;2.90;;
4724;SDS011;2376;53.544;10.226;2022-11-20T14:44:26;3.10;;;2.90;;
4724;SDS011;2376;53.544;10.226;2022-11-20T14:46:55;3.40;;;3.20;;
4724;SDS011;2376;53.544;10.226;2022-11-20T14:49:22;3.27;;;3.07;;
4724;SDS011;2376;53.544;10.226;2022-11-20T14:51:58;3.73;;;3.50;;
4724;SDS011;2376;53.544;10.226;2022-11-20T14:54:25;4.23;;;3.93;;
4724;SDS011;2376;53.544;10.226;2022-11-20T14:56:53;3.47;;;3.27;;
4724;SDS011;2376;53.544;10.226;2022-11-20T14:59:23;3.63;;;3.43;;
4724;SDS011;2376;53.544;10.226;2022-11-20T15:01:54;4.10;;;3.80;;
4724;SDS011;2376;53.544;10.226;2022-11-20T15:04:22;4.30;;;4.00;;
4724;SDS011;2376;53.544;10.226;2022-11-20T15:06:50;4.30;;;4.00;;
4724;SDS011;2376;53.544;10.226;2022-11-20T15:09:17;3.50;;;3.30;;
4724;SDS011;2376;53.544;10.226;2022-11-20T15:11:51;4.27;;;3.97;;
4724;SDS011;2376;53.544;10.226;2022-11-20T15:14:21;3.13;;;2.93;;
4724;SDS011;2376;53.544;10.226;2022-11-20T15:16:50;3.60;;;3.40;;
4724;SDS011;2376;53.544;10.226;2022-11-20T15:19:18;5.57;;;3.90;;
4724;SDS011;2376;53.544;10.226;2022-11-20T15:21:47;3.90;;;3.60;;
4724;SDS011;2376;53.544;10.226;2022-11-20T15:24:14;3.63;;;3.33;;
4724;SDS011;2376;53.544;10.226;2022-11-20T15:26:41;4.20;;;3.90;;